sensor_id;sensor_type;location;lat;lon;timestamp;P1;durP1;ratioP1;P2;durP2;ratioP2
83054;SDS011;72877;52.130;5.582;2024-01-27T00:00:32;14.80;;;4.72;;
83054;SDS011;72877;52.130;5.582;2024-01-27T00:02:57;11.75;;;3.78;;
83054;SDS011;72877;52.130;5.582;2024-01-27T00:05:22;20.33;;;5.38;;
83054;SDS011;72877;52.130;5.582;2024-01-27T00:07:47;20.25;;;4.35;;
83054;SDS011;72877;52.130;5.582;2024-01-27T00:10:13;26.02;;;4.80;;
83054;SDS011;72877;52.130;5.582;2024-01-27T00:12:38;17.00;;;4.38;;
83054;SDS011;72877;52.130;5.582;2024-01-27T00:15:03;15.05;;;4.80;;
83054;SDS011;72877;52.130;5.582;2024-01-27T00:17:29;13.90;;;3.90;;
83054;SDS011;72877;52.130;5.582;2024-01-27T00:19:54;21.10;;;4.07;;
83054;SDS011;72877;52.130;5.582;2024-01-27T00:22:19;24.45;;;5.43;;
83054;SDS011;72877;52.130;5.582;2024-01-27T00:24:47;20.85;;;4.47;;
83054;SDS011;72877;52.130;5.582;2024-01-27T00:27:12;19.13;;;5.30;;
83054;SDS011;72877;52.130;5.582;2024-01-27T00:29:37;15.10;;;4.40;;
83054;SDS011;72877;52.130;5.582;2024-01-27T00:32:02;14.65;;;3.90;;
83054;SDS011;72877;52.130;5.582;2024-01-27T00:34:27;11.82;;;3.78;;
83054;SDS011;72877;52.130;5.582;2024-01-27T00:36:53;16.23;;;4.53;;
83054;SDS011;72877;52.130;5.582;2024-01-27T00:39:18;17.08;;;4.78;;
83054;SDS011;72877;52.130;5.582;2024-01-27T00:41:44;17.20;;;4.72;;
83054;SDS011;72877;52.130;5.582;2024-01-27T00:44:09;23.90;;;4.65;;
83054;SDS011;72877;52.130;5.582;2024-01-27T00:46:35;16.17;;;4.32;;
83054;SDS011;72877;52.130;5.582;2024-01-27T00:49:01;17.40;;;4.68;;
83054;SDS011;72877;52.130;5.582;2024-01-27T00:51:26;16.15;;;4.30;;
83054;SDS011;72877;52.130;5.582;2024-01-27T00:53:51;16.50;;;4.80;;
83054;SDS011;72877;52.130;5.582;2024-01-27T00:56:16;22.40;;;4.45;;
83054;SDS011;72877;52.130;5.582;2024-01-27T00:58:41;16.35;;;4.28;;
83054;SDS011;72877;52.130;5.582;2024-01-27T01:01:07;13.63;;;4.20;;
83054;SDS011;72877;52.130;5.582;2024-01-27T01:03:32;19.45;;;4.47;;
83054;SDS011;72877;52.130;5.582;2024-01-27T01:05:57;20.42;;;4.35;;
83054;SDS011;72877;52.130;5.582;2024-01-27T01:08:22;14.13;;;3.42;;
83054;SDS011;72877;52.130;5.582;2024-01-27T01:10:48;23.20;;;4.40;;
83054;SDS011;72877;52.130;5.582;2024-01-27T01:13:13;11.70;;;3.58;;
83054;SDS011;72877;52.130;5.582;2024-01-27T01:15:38;17.52;;;4.28;;
83054;SDS011;72877;52.130;5.582;2024-01-27T01:18:04;18.73;;;4.13;;
83054;SDS011;72877;52.130;5.582;2024-01-27T01:20:29;16.60;;;3.85;;
83054;SDS011;72877;52.130;5.582;2024-01-27T01:22:55;17.40;;;4.43;;
83054;SDS011;72877;52.130;5.582;2024-01-27T01:25:20;25.98;;;4.80;;
83054;SDS011;72877;52.130;5.582;2024-01-27T01:27:45;16.85;;;4.50;;
83054;SDS011;72877;52.130;5.582;2024-01-27T01:30:11;20.23;;;4.80;;
83054;SDS011;72877;52.130;5.582;2024-01-27T01:32:36;11.48;;;3.35;;
83054;SDS011;72877;52.130;5.582;2024-01-27T01:35:02;21.77;;;3.72;;
83054;SDS011;72877;52.130;5.582;2024-01-27T01:37:27;21.30;;;6.65;;
83054;SDS011;72877;52.130;5.582;2024-01-27T01:39:52;16.15;;;4.20;;
83054;SDS011;72877;52.130;5.582;2024-01-27T01:42:17;11.60;;;3.45;;
83054;SDS011;72877;52.130;5.582;2024-01-27T01:44:43;16.27;;;3.63;;
83054;SDS011;72877;52.130;5.582;2024-01-27T01:47:08;17.40;;;3.65;;
83054;SDS011;72877;52.130;5.582;2024-01-27T01:49:33;15.02;;;3.30;;
83054;SDS011;72877;52.130;5.582;2024-01-27T01:51:59;16.50;;;4.03;;
83054;SDS011;72877;52.130;5.582;2024-01-27T01:54:24;17.98;;;3.60;;
83054;SDS011;72877;52.130;5.582;2024-01-27T01:56:53;12.45;;;4.13;;
83054;SDS011;72877;52.130;5.582;2024-01-27T01:59:18;16.25;;;4.40;;
83054;SDS011;72877;52.130;5.582;2024-01-27T02:01:43;15.07;;;3.70;;
83054;SDS011;72877;52.130;5.582;2024-01-27T02:04:09;12.90;;;2.90;;
83054;SDS011;72877;52.130;5.582;2024-01-27T02:06:34;12.52;;;3.38;;
83054;SDS011;72877;52.130;5.582;2024-01-27T02:08:59;10.88;;;3.42;;
83054;SDS011;72877;52.130;5.582;2024-01-27T02:11:24;15.50;;;3.53;;
83054;SDS011;72877;52.130;5.582;2024-01-27T02:13:49;17.10;;;3.55;;
83054;SDS011;72877;52.130;5.582;2024-01-27T02:16:15;24.45;;;5.85;;
83054;SDS011;72877;52.130;5.582;2024-01-27T02:18:42;23.02;;;3.90;;
83054;SDS011;72877;52.130;5.582;2024-01-27T02:21:07;12.57;;;4.30;;
83054;SDS011;72877;52.130;5.582;2024-01-27T02:23:33;18.40;;;3.75;;
83054;SDS011;72877;52.130;5.582;2024-01-27T02:25:58;14.63;;;3.15;;
83054;SDS011;72877;52.130;5.582;2024-01-27T02:28:23;15.27;;;3.80;;
83054;SDS011;72877;52.130;5.582;2024-01-27T02:30:49;15.98;;;3.60;;
83054;SDS011;72877;52.130;5.582;2024-01-27T02:33:14;13.00;;;4.15;;
83054;SDS011;72877;52.130;5.582;2024-01-27T02:35:39;13.95;;;3.85;;
83054;SDS011;72877;52.130;5.582;2024-01-27T02:38:04;15.15;;;3.78;;
83054;SDS011;72877;52.130;5.582;2024-01-27T02:40:30;12.75;;;3.35;;
83054;SDS011;72877;52.130;5.582;2024-01-27T02:42:55;11.27;;;3.40;;
83054;SDS011;72877;52.130;5.582;2024-01-27T02:45:20;19.05;;;3.97;;
83054;SDS011;72877;52.130;5.582;2024-01-27T02:47:45;15.80;;;4.05;;
83054;SDS011;72877;52.130;5.582;2024-01-27T02:50:11;15.10;;;4.00;;
83054;SDS011;72877;52.130;5.582;2024-01-27T02:52:36;11.23;;;3.28;;
83054;SDS011;72877;52.130;5.582;2024-01-27T02:55:01;14.55;;;3.83;;
83054;SDS011;72877;52.130;5.582;2024-01-27T02:57:26;16.92;;;4.15;;
83054;SDS011;72877;52.130;5.582;2024-01-27T02:59:52;15.75;;;3.30;;
83054;SDS011;72877;52.130;5.582;2024-01-27T03:02:17;16.38;;;3.97;;
83054;SDS011;72877;52.130;5.582;2024-01-27T03:04:42;13.05;;;4.25;;
83054;SDS011;72877;52.130;5.582;2024-01-27T03:07:07;9.43;;;3.20;;
83054;SDS011;72877;52.130;5.582;2024-01-27T03:09:33;13.95;;;4.05;;
83054;SDS011;72877;52.130;5.582;2024-01-27T03:11:58;14.88;;;3.58;;
83054;SDS011;72877;52.130;5.582;2024-01-27T03:14:23;15.00;;;4.90;;
83054;SDS011;72877;52.130;5.582;2024-01-27T03:16:49;12.55;;;3.35;;
83054;SDS011;72877;52.130;5.582;2024-01-27T03:19:14;10.32;;;4.30;;
83054;SDS011;72877;52.130;5.582;2024-01-27T03:21:39;10.23;;;3.30;;
83054;SDS011;72877;52.130;5.582;2024-01-27T03:24:04;17.55;;;3.95;;
83054;SDS011;72877;52.130;5.582;2024-01-27T03:26:30;16.85;;;4.05;;
83054;SDS011;72877;52.130;5.582;2024-01-27T03:28:55;22.40;;;4.97;;
83054;SDS011;72877;52.130;5.582;2024-01-27T03:31:20;19.17;;;3.75;;
83054;SDS011;72877;52.130;5.582;2024-01-27T03:33:45;16.73;;;4.40;;
83054;SDS011;72877;52.130;5.582;2024-01-27T03:36:11;11.25;;;3.60;;
83054;SDS011;72877;52.130;5.582;2024-01-27T03:38:37;20.38;;;4.32;;
83054;SDS011;72877;52.130;5.582;2024-01-27T03:41:02;12.63;;;4.88;;
83054;SDS011;72877;52.130;5.582;2024-01-27T03:43:27;24.83;;;4.28;;
83054;SDS011;72877;52.130;5.582;2024-01-27T03:45:53;13.13;;;4.07;;
83054;SDS011;72877;52.130;5.582;2024-01-27T03:48:18;18.63;;;3.60;;
83054;SDS011;72877;52.130;5.582;2024-01-27T03:50:43;17.00;;;4.32;;
83054;SDS011;72877;52.130;5.582;2024-01-27T03:53:08;16.67;;;4.20;;
83054;SDS011;72877;52.130;5.582;2024-01-27T03:55:33;11.82;;;4.30;;
83054;SDS011;72877;52.130;5.582;2024-01-27T03:57:59;19.63;;;4.45;;
83054;SDS011;72877;52.130;5.582;2024-01-27T04:00:24;11.27;;;4.00;;
83054;SDS011;72877;52.130;5.582;2024-01-27T04:02:49;15.35;;;4.00;;
83054;SDS011;72877;52.130;5.582;2024-01-27T04:05:15;15.15;;;4.63;;
83054;SDS011;72877;52.130;5.582;2024-01-27T04:07:40;18.17;;;4.38;;
83054;SDS011;72877;52.130;5.582;2024-01-27T04:10:05;14.77;;;4.40;;
83054;SDS011;72877;52.130;5.582;2024-01-27T04:12:30;13.07;;;4.95;;
83054;SDS011;72877;52.130;5.582;2024-01-27T04:14:56;17.65;;;5.10;;
83054;SDS011;72877;52.130;5.582;2024-01-27T04:17:21;23.08;;;5.68;;
83054;SDS011;72877;52.130;5.582;2024-01-27T04:19:47;11.65;;;4.28;;
83054;SDS011;72877;52.130;5.582;2024-01-27T04:22:13;16.05;;;5.40;;
83054;SDS011;72877;52.130;5.582;2024-01-27T04:24:38;20.52;;;4.82;;
83054;SDS011;72877;52.130;5.582;2024-01-27T04:27:03;18.90;;;5.45;;
83054;SDS011;72877;52.130;5.582;2024-01-27T04:29:28;17.38;;;5.93;;
83054;SDS011;72877;52.130;5.582;2024-01-27T04:31:54;20.27;;;6.22;;
83054;SDS011;72877;52.130;5.582;2024-01-27T04:34:19;12.68;;;5.60;;
83054;SDS011;72877;52.130;5.582;2024-01-27T04:36:44;13.48;;;4.90;;
83054;SDS011;72877;52.130;5.582;2024-01-27T04:39:10;18.83;;;5.55;;
83054;SDS011;72877;52.130;5.582;2024-01-27T04:41:40;14.57;;;6.25;;
83054;SDS011;72877;52.130;5.582;2024-01-27T04:44:06;19.63;;;6.53;;
83054;SDS011;72877;52.130;5.582;2024-01-27T04:46:31;13.50;;;5.85;;
83054;SDS011;72877;52.130;5.582;2024-01-27T04:48:56;17.58;;;5.43;;
83054;SDS011;72877;52.130;5.582;2024-01-27T04:51:21;24.65;;;6.35;;
83054;SDS011;72877;52.130;5.582;2024-01-27T04:53:46;14.68;;;6.32;;
83054;SDS011;72877;52.130;5.582;2024-01-27T04:56:12;18.30;;;5.45;;
83054;SDS011;72877;52.130;5.582;2024-01-27T04:58:38;21.23;;;8.30;;
83054;SDS011;72877;52.130;5.582;2024-01-27T05:01:03;20.13;;;6.18;;
83054;SDS011;72877;52.130;5.582;2024-01-27T05:03:28;18.80;;;5.78;;
83054;SDS011;72877;52.130;5.582;2024-01-27T05:05:53;19.25;;;6.82;;
83054;SDS011;72877;52.130;5.582;2024-01-27T05:08:18;13.98;;;6.47;;
83054;SDS011;72877;52.130;5.582;2024-01-27T05:10:44;24.95;;;6.03;;
83054;SDS011;72877;52.130;5.582;2024-01-27T05:13:10;17.65;;;6.95;;
83054;SDS011;72877;52.130;5.582;2024-01-27T05:15:35;22.55;;;5.97;;
83054;SDS011;72877;52.130;5.582;2024-01-27T05:18:00;15.88;;;6.40;;
83054;SDS011;72877;52.130;5.582;2024-01-27T05:20:25;16.95;;;6.13;;
83054;SDS011;72877;52.130;5.582;2024-01-27T05:22:51;20.88;;;6.50;;
83054;SDS011;72877;52.130;5.582;2024-01-27T05:25:16;15.82;;;6.50;;
83054;SDS011;72877;52.130;5.582;2024-01-27T05:27:41;25.35;;;7.18;;
83054;SDS011;72877;52.130;5.582;2024-01-27T05:30:07;20.85;;;8.90;;
83054;SDS011;72877;52.130;5.582;2024-01-27T05:32:32;24.65;;;6.93;;
83054;SDS011;72877;52.130;5.582;2024-01-27T05:34:58;25.17;;;7.05;;
83054;SDS011;72877;52.130;5.582;2024-01-27T05:37:23;16.85;;;6.25;;
83054;SDS011;72877;52.130;5.582;2024-01-27T05:39:48;20.10;;;8.35;;
83054;SDS011;72877;52.130;5.582;2024-01-27T05:42:13;18.98;;;7.18;;
83054;SDS011;72877;52.130;5.582;2024-01-27T05:44:38;16.13;;;6.88;;
83054;SDS011;72877;52.130;5.582;2024-01-27T05:47:05;17.67;;;7.25;;
83054;SDS011;72877;52.130;5.582;2024-01-27T05:49:31;19.95;;;8.43;;
83054;SDS011;72877;52.130;5.582;2024-01-27T05:51:56;18.88;;;7.47;;
83054;SDS011;72877;52.130;5.582;2024-01-27T05:54:21;20.95;;;7.97;;
83054;SDS011;72877;52.130;5.582;2024-01-27T05:56:47;18.23;;;7.72;;
83054;SDS011;72877;52.130;5.582;2024-01-27T05:59:12;13.32;;;7.07;;
83054;SDS011;72877;52.130;5.582;2024-01-27T06:01:37;17.80;;;7.30;;
83054;SDS011;72877;52.130;5.582;2024-01-27T06:04:05;18.33;;;8.40;;
83054;SDS011;72877;52.130;5.582;2024-01-27T06:06:30;16.50;;;7.55;;
83054;SDS011;72877;52.130;5.582;2024-01-27T06:08:55;21.70;;;7.20;;
83054;SDS011;72877;52.130;5.582;2024-01-27T06:11:24;19.10;;;8.80;;
83054;SDS011;72877;52.130;5.582;2024-01-27T06:13:49;20.10;;;7.85;;
83054;SDS011;72877;52.130;5.582;2024-01-27T06:16:15;17.88;;;7.90;;
83054;SDS011;72877;52.130;5.582;2024-01-27T06:18:40;13.38;;;7.82;;
83054;SDS011;72877;52.130;5.582;2024-01-27T06:21:05;20.05;;;9.18;;
83054;SDS011;72877;52.130;5.582;2024-01-27T06:23:30;12.40;;;7.90;;
83054;SDS011;72877;52.130;5.582;2024-01-27T06:25:56;18.33;;;8.15;;
83054;SDS011;72877;52.130;5.582;2024-01-27T06:28:21;30.25;;;9.27;;
83054;SDS011;72877;52.130;5.582;2024-01-27T06:30:46;18.75;;;8.55;;
83054;SDS011;72877;52.130;5.582;2024-01-27T06:33:11;27.02;;;8.98;;
83054;SDS011;72877;52.130;5.582;2024-01-27T06:35:37;18.98;;;9.07;;
83054;SDS011;72877;52.130;5.582;2024-01-27T06:38:02;16.02;;;8.38;;
83054;SDS011;72877;52.130;5.582;2024-01-27T06:40:27;20.85;;;8.60;;
83054;SDS011;72877;52.130;5.582;2024-01-27T06:42:52;19.08;;;8.70;;
83054;SDS011;72877;52.130;5.582;2024-01-27T06:45:18;20.42;;;10.52;;
83054;SDS011;72877;52.130;5.582;2024-01-27T06:47:43;18.45;;;8.48;;
83054;SDS011;72877;52.130;5.582;2024-01-27T06:50:09;24.92;;;10.23;;
83054;SDS011;72877;52.130;5.582;2024-01-27T06:52:34;19.90;;;9.50;;
83054;SDS011;72877;52.130;5.582;2024-01-27T06:54:59;19.45;;;9.32;;
83054;SDS011;72877;52.130;5.582;2024-01-27T06:57:24;14.50;;;9.98;;
83054;SDS011;72877;52.130;5.582;2024-01-27T06:59:51;71.15;;;28.65;;
83054;SDS011;72877;52.130;5.582;2024-01-27T07:02:24;71.05;;;33.03;;
83054;SDS011;72877;52.130;5.582;2024-01-27T07:04:50;39.85;;;19.38;;
83054;SDS011;72877;52.130;5.582;2024-01-27T07:07:15;35.28;;;18.10;;
83054;SDS011;72877;52.130;5.582;2024-01-27T07:09:40;35.90;;;16.98;;
83054;SDS011;72877;52.130;5.582;2024-01-27T07:12:05;25.33;;;13.85;;
83054;SDS011;72877;52.130;5.582;2024-01-27T07:14:31;28.52;;;14.57;;
83054;SDS011;72877;52.130;5.582;2024-01-27T07:16:56;26.38;;;14.40;;
83054;SDS011;72877;52.130;5.582;2024-01-27T07:19:21;27.00;;;13.38;;
83054;SDS011;72877;52.130;5.582;2024-01-27T07:21:47;30.67;;;12.40;;
83054;SDS011;72877;52.130;5.582;2024-01-27T07:24:12;24.80;;;12.93;;
83054;SDS011;72877;52.130;5.582;2024-01-27T07:26:37;26.58;;;13.15;;
83054;SDS011;72877;52.130;5.582;2024-01-27T07:29:03;32.28;;;12.68;;
83054;SDS011;72877;52.130;5.582;2024-01-27T07:31:28;21.58;;;11.48;;
83054;SDS011;72877;52.130;5.582;2024-01-27T07:33:53;24.88;;;11.82;;
83054;SDS011;72877;52.130;5.582;2024-01-27T07:36:18;24.10;;;10.90;;
83054;SDS011;72877;52.130;5.582;2024-01-27T07:38:43;22.42;;;11.77;;
83054;SDS011;72877;52.130;5.582;2024-01-27T07:41:09;24.85;;;12.05;;
83054;SDS011;72877;52.130;5.582;2024-01-27T07:43:34;23.65;;;11.23;;
83054;SDS011;72877;52.130;5.582;2024-01-27T07:45:59;30.63;;;14.13;;
83054;SDS011;72877;52.130;5.582;2024-01-27T07:48:24;26.58;;;11.77;;
83054;SDS011;72877;52.130;5.582;2024-01-27T07:50:50;27.73;;;11.95;;
83054;SDS011;72877;52.130;5.582;2024-01-27T07:53:15;25.02;;;11.57;;
83054;SDS011;72877;52.130;5.582;2024-01-27T07:55:41;28.33;;;15.65;;
83054;SDS011;72877;52.130;5.582;2024-01-27T07:58:06;30.67;;;14.90;;
83054;SDS011;72877;52.130;5.582;2024-01-27T08:00:31;27.33;;;12.68;;
83054;SDS011;72877;52.130;5.582;2024-01-27T08:02:57;22.48;;;11.57;;
83054;SDS011;72877;52.130;5.582;2024-01-27T08:05:22;21.23;;;10.75;;
83054;SDS011;72877;52.130;5.582;2024-01-27T08:07:48;27.55;;;12.32;;
83054;SDS011;72877;52.130;5.582;2024-01-27T08:10:13;26.02;;;11.45;;
83054;SDS011;72877;52.130;5.582;2024-01-27T08:12:38;29.38;;;11.93;;
83054;SDS011;72877;52.130;5.582;2024-01-27T08:15:03;21.55;;;11.32;;
83054;SDS011;72877;52.130;5.582;2024-01-27T08:17:29;22.08;;;11.43;;
83054;SDS011;72877;52.130;5.582;2024-01-27T08:19:54;23.55;;;11.07;;
83054;SDS011;72877;52.130;5.582;2024-01-27T08:22:19;21.88;;;9.80;;
83054;SDS011;72877;52.130;5.582;2024-01-27T08:24:45;30.67;;;11.23;;
83054;SDS011;72877;52.130;5.582;2024-01-27T08:27:10;33.38;;;11.10;;
83054;SDS011;72877;52.130;5.582;2024-01-27T08:29:35;21.67;;;9.93;;
83054;SDS011;72877;52.130;5.582;2024-01-27T08:32:00;22.83;;;9.40;;
83054;SDS011;72877;52.130;5.582;2024-01-27T08:34:26;24.40;;;9.25;;
83054;SDS011;72877;52.130;5.582;2024-01-27T08:36:51;28.15;;;11.02;;
83054;SDS011;72877;52.130;5.582;2024-01-27T08:39:16;20.58;;;9.45;;
83054;SDS011;72877;52.130;5.582;2024-01-27T08:41:41;27.40;;;9.73;;
83054;SDS011;72877;52.130;5.582;2024-01-27T08:44:07;21.50;;;10.15;;
83054;SDS011;72877;52.130;5.582;2024-01-27T08:46:32;24.17;;;10.23;;
83054;SDS011;72877;52.130;5.582;2024-01-27T08:48:57;21.73;;;10.70;;
83054;SDS011;72877;52.130;5.582;2024-01-27T08:51:22;31.33;;;11.73;;
83054;SDS011;72877;52.130;5.582;2024-01-27T08:53:47;25.13;;;10.68;;
83054;SDS011;72877;52.130;5.582;2024-01-27T08:56:16;30.02;;;10.35;;
83054;SDS011;72877;52.130;5.582;2024-01-27T08:58:42;23.25;;;10.70;;
83054;SDS011;72877;52.130;5.582;2024-01-27T09:01:08;26.23;;;10.38;;
83054;SDS011;72877;52.130;5.582;2024-01-27T09:03:34;31.67;;;10.20;;
83054;SDS011;72877;52.130;5.582;2024-01-27T09:06:00;25.75;;;10.02;;
83054;SDS011;72877;52.130;5.582;2024-01-27T09:08:25;28.98;;;10.27;;
83054;SDS011;72877;52.130;5.582;2024-01-27T09:10:51;19.05;;;9.70;;
83054;SDS011;72877;52.130;5.582;2024-01-27T09:13:16;25.15;;;12.25;;
83054;SDS011;72877;52.130;5.582;2024-01-27T09:15:42;32.00;;;10.65;;
83054;SDS011;72877;52.130;5.582;2024-01-27T09:18:07;33.78;;;12.88;;
83054;SDS011;72877;52.130;5.582;2024-01-27T09:20:32;24.77;;;10.40;;
83054;SDS011;72877;52.130;5.582;2024-01-27T09:22:57;25.95;;;10.30;;
83054;SDS011;72877;52.130;5.582;2024-01-27T09:25:22;24.50;;;10.02;;
83054;SDS011;72877;52.130;5.582;2024-01-27T09:27:49;20.73;;;9.55;;
83054;SDS011;72877;52.130;5.582;2024-01-27T09:30:14;23.50;;;10.38;;
83054;SDS011;72877;52.130;5.582;2024-01-27T09:32:40;32.85;;;11.10;;
83054;SDS011;72877;52.130;5.582;2024-01-27T09:35:05;26.85;;;10.00;;
83054;SDS011;72877;52.130;5.582;2024-01-27T09:37:30;19.75;;;10.60;;
83054;SDS011;72877;52.130;5.582;2024-01-27T09:39:57;20.23;;;9.73;;
83054;SDS011;72877;52.130;5.582;2024-01-27T09:42:22;21.30;;;10.63;;
83054;SDS011;72877;52.130;5.582;2024-01-27T09:44:48;26.20;;;10.10;;
83054;SDS011;72877;52.130;5.582;2024-01-27T09:47:13;24.60;;;9.60;;
83054;SDS011;72877;52.130;5.582;2024-01-27T09:49:39;25.30;;;10.23;;
83054;SDS011;72877;52.130;5.582;2024-01-27T09:52:05;25.75;;;10.77;;
83054;SDS011;72877;52.130;5.582;2024-01-27T09:54:30;23.50;;;10.25;;
83054;SDS011;72877;52.130;5.582;2024-01-27T09:56:56;26.55;;;10.77;;
83054;SDS011;72877;52.130;5.582;2024-01-27T09:59:22;28.05;;;10.30;;
83054;SDS011;72877;52.130;5.582;2024-01-27T10:01:48;26.80;;;11.57;;
83054;SDS011;72877;52.130;5.582;2024-01-27T10:04:13;29.13;;;10.48;;
83054;SDS011;72877;52.130;5.582;2024-01-27T10:06:38;26.10;;;10.20;;
83054;SDS011;72877;52.130;5.582;2024-01-27T10:09:04;19.25;;;10.05;;
83054;SDS011;72877;52.130;5.582;2024-01-27T10:11:29;26.15;;;10.93;;
83054;SDS011;72877;52.130;5.582;2024-01-27T10:13:56;26.23;;;9.95;;
83054;SDS011;72877;52.130;5.582;2024-01-27T10:16:22;22.00;;;9.25;;
83054;SDS011;72877;52.130;5.582;2024-01-27T10:18:47;26.63;;;10.70;;
83054;SDS011;72877;52.130;5.582;2024-01-27T10:21:16;30.60;;;10.18;;
83054;SDS011;72877;52.130;5.582;2024-01-27T10:23:41;21.70;;;9.80;;
83054;SDS011;72877;52.130;5.582;2024-01-27T10:26:09;26.95;;;10.52;;
83054;SDS011;72877;52.130;5.582;2024-01-27T10:28:35;29.50;;;10.07;;
83054;SDS011;72877;52.130;5.582;2024-01-27T10:31:10;16.88;;;8.52;;
83054;SDS011;72877;52.130;5.582;2024-01-27T10:33:35;22.05;;;10.20;;
83054;SDS011;72877;52.130;5.582;2024-01-27T10:36:00;23.95;;;10.15;;
83054;SDS011;72877;52.130;5.582;2024-01-27T10:38:36;21.63;;;11.38;;
83054;SDS011;72877;52.130;5.582;2024-01-27T10:41:02;24.65;;;10.68;;
83054;SDS011;72877;52.130;5.582;2024-01-27T10:43:29;25.17;;;10.13;;
83054;SDS011;72877;52.130;5.582;2024-01-27T10:45:55;24.25;;;9.82;;
83054;SDS011;72877;52.130;5.582;2024-01-27T10:48:21;24.92;;;9.82;;
83054;SDS011;72877;52.130;5.582;2024-01-27T10:50:47;31.30;;;10.85;;
83054;SDS011;72877;52.130;5.582;2024-01-27T10:53:21;22.55;;;10.85;;
83054;SDS011;72877;52.130;5.582;2024-01-27T10:55:47;35.42;;;15.07;;
83054;SDS011;72877;52.130;5.582;2024-01-27T10:58:13;48.72;;;20.65;;
83054;SDS011;72877;52.130;5.582;2024-01-27T11:00:39;33.10;;;14.93;;
83054;SDS011;72877;52.130;5.582;2024-01-27T11:03:06;29.73;;;12.15;;
83054;SDS011;72877;52.130;5.582;2024-01-27T11:05:33;26.00;;;10.60;;
83054;SDS011;72877;52.130;5.582;2024-01-27T11:08:00;27.15;;;11.32;;
83054;SDS011;72877;52.130;5.582;2024-01-27T11:10:25;25.70;;;12.02;;
83054;SDS011;72877;52.130;5.582;2024-01-27T11:12:52;21.58;;;10.52;;
83054;SDS011;72877;52.130;5.582;2024-01-27T11:15:18;24.30;;;10.18;;
83054;SDS011;72877;52.130;5.582;2024-01-27T11:17:43;32.72;;;12.25;;
83054;SDS011;72877;52.130;5.582;2024-01-27T11:20:10;24.17;;;12.05;;
83054;SDS011;72877;52.130;5.582;2024-01-27T11:22:36;22.90;;;8.70;;
83054;SDS011;72877;52.130;5.582;2024-01-27T11:27:33;27.05;;;8.52;;
83054;SDS011;72877;52.130;5.582;2024-01-27T11:29:59;16.25;;;8.45;;
83054;SDS011;72877;52.130;5.582;2024-01-27T11:32:25;21.25;;;9.80;;
83054;SDS011;72877;52.130;5.582;2024-01-27T11:34:51;23.15;;;9.00;;
83054;SDS011;72877;52.130;5.582;2024-01-27T11:37:17;26.75;;;10.23;;
83054;SDS011;72877;52.130;5.582;2024-01-27T11:39:42;29.73;;;11.25;;
83054;SDS011;72877;52.130;5.582;2024-01-27T11:42:11;21.15;;;8.90;;
83054;SDS011;72877;52.130;5.582;2024-01-27T11:44:40;21.55;;;8.35;;
83054;SDS011;72877;52.130;5.582;2024-01-27T11:47:07;24.52;;;7.70;;
83054;SDS011;72877;52.130;5.582;2024-01-27T11:49:38;23.80;;;7.38;;
83054;SDS011;72877;52.130;5.582;2024-01-27T11:52:05;19.88;;;7.18;;
83054;SDS011;72877;52.130;5.582;2024-01-27T11:54:31;21.05;;;8.20;;
83054;SDS011;72877;52.130;5.582;2024-01-27T11:56:56;15.60;;;6.80;;
83054;SDS011;72877;52.130;5.582;2024-01-27T11:59:21;28.65;;;7.75;;
83054;SDS011;72877;52.130;5.582;2024-01-27T12:01:47;19.27;;;6.72;;
83054;SDS011;72877;52.130;5.582;2024-01-27T12:04:13;26.55;;;10.52;;
83054;SDS011;72877;52.130;5.582;2024-01-27T12:06:39;23.45;;;8.07;;
83054;SDS011;72877;52.130;5.582;2024-01-27T12:09:05;21.38;;;7.85;;
83054;SDS011;72877;52.130;5.582;2024-01-27T12:11:36;15.45;;;6.72;;
83054;SDS011;72877;52.130;5.582;2024-01-27T12:14:02;21.42;;;6.85;;
83054;SDS011;72877;52.130;5.582;2024-01-27T12:16:28;19.75;;;6.78;;
83054;SDS011;72877;52.130;5.582;2024-01-27T12:18:53;21.15;;;8.23;;
83054;SDS011;72877;52.130;5.582;2024-01-27T12:21:21;27.95;;;8.13;;
83054;SDS011;72877;52.130;5.582;2024-01-27T12:26:14;23.80;;;7.68;;
83054;SDS011;72877;52.130;5.582;2024-01-27T12:28:40;18.88;;;6.45;;
83054;SDS011;72877;52.130;5.582;2024-01-27T12:31:05;20.27;;;9.13;;
83054;SDS011;72877;52.130;5.582;2024-01-27T12:33:30;16.10;;;7.20;;
83054;SDS011;72877;52.130;5.582;2024-01-27T12:35:56;18.10;;;6.90;;
83054;SDS011;72877;52.130;5.582;2024-01-27T12:38:22;21.83;;;7.95;;
83054;SDS011;72877;52.130;5.582;2024-01-27T12:40:47;20.85;;;7.82;;
83054;SDS011;72877;52.130;5.582;2024-01-27T12:43:12;25.20;;;8.35;;
83054;SDS011;72877;52.130;5.582;2024-01-27T12:45:37;19.05;;;8.48;;
83054;SDS011;72877;52.130;5.582;2024-01-27T12:48:03;22.52;;;8.10;;
83054;SDS011;72877;52.130;5.582;2024-01-27T12:50:30;24.80;;;9.88;;
83054;SDS011;72877;52.130;5.582;2024-01-27T12:52:55;21.40;;;7.25;;
83054;SDS011;72877;52.130;5.582;2024-01-27T12:55:20;21.73;;;7.25;;
83054;SDS011;72877;52.130;5.582;2024-01-27T12:57:47;21.70;;;7.50;;
83054;SDS011;72877;52.130;5.582;2024-01-27T13:00:12;20.95;;;6.72;;
83054;SDS011;72877;52.130;5.582;2024-01-27T13:02:39;21.08;;;6.38;;
83054;SDS011;72877;52.130;5.582;2024-01-27T13:05:04;22.40;;;6.90;;
83054;SDS011;72877;52.130;5.582;2024-01-27T13:07:30;23.65;;;6.80;;
83054;SDS011;72877;52.130;5.582;2024-01-27T13:09:55;18.42;;;6.93;;
83054;SDS011;72877;52.130;5.582;2024-01-27T13:12:20;19.45;;;7.57;;
83054;SDS011;72877;52.130;5.582;2024-01-27T13:14:46;24.67;;;6.93;;
83054;SDS011;72877;52.130;5.582;2024-01-27T13:17:11;21.17;;;6.60;;
83054;SDS011;72877;52.130;5.582;2024-01-27T13:19:39;21.00;;;6.82;;
83054;SDS011;72877;52.130;5.582;2024-01-27T13:22:04;23.88;;;6.18;;
83054;SDS011;72877;52.130;5.582;2024-01-27T13:24:30;20.80;;;6.18;;
83054;SDS011;72877;52.130;5.582;2024-01-27T13:26:55;20.48;;;6.18;;
83054;SDS011;72877;52.130;5.582;2024-01-27T13:29:21;21.65;;;6.03;;
83054;SDS011;72877;52.130;5.582;2024-01-27T13:31:47;17.73;;;5.60;;
83054;SDS011;72877;52.130;5.582;2024-01-27T13:34:12;24.88;;;6.47;;
83054;SDS011;72877;52.130;5.582;2024-01-27T13:36:38;18.05;;;5.93;;
83054;SDS011;72877;52.130;5.582;2024-01-27T13:39:03;18.55;;;5.30;;
83054;SDS011;72877;52.130;5.582;2024-01-27T13:41:29;18.23;;;7.45;;
83054;SDS011;72877;52.130;5.582;2024-01-27T13:43:54;21.80;;;7.63;;
83054;SDS011;72877;52.130;5.582;2024-01-27T13:46:19;20.47;;;7.40;;
83054;SDS011;72877;52.130;5.582;2024-01-27T13:48:44;21.17;;;6.80;;
83054;SDS011;72877;52.130;5.582;2024-01-27T13:51:10;18.00;;;7.00;;
83054;SDS011;72877;52.130;5.582;2024-01-27T13:53:35;27.87;;;7.23;;
83054;SDS011;72877;52.130;5.582;2024-01-27T13:56:01;22.30;;;7.27;;
83054;SDS011;72877;52.130;5.582;2024-01-27T13:58:26;19.10;;;6.47;;
83054;SDS011;72877;52.130;5.582;2024-01-27T14:00:51;16.80;;;7.10;;
83054;SDS011;72877;52.130;5.582;2024-01-27T14:03:17;25.33;;;9.98;;
83054;SDS011;72877;52.130;5.582;2024-01-27T14:05:42;26.25;;;8.13;;
83054;SDS011;72877;52.130;5.582;2024-01-27T14:08:08;20.70;;;6.35;;
83054;SDS011;72877;52.130;5.582;2024-01-27T14:10:34;20.17;;;6.15;;
83054;SDS011;72877;52.130;5.582;2024-01-27T14:13:00;16.70;;;6.43;;
83054;SDS011;72877;52.130;5.582;2024-01-27T14:15:27;18.15;;;6.00;;
83054;SDS011;72877;52.130;5.582;2024-01-27T14:17:53;23.95;;;5.50;;
83054;SDS011;72877;52.130;5.582;2024-01-27T14:20:18;21.90;;;7.55;;
83054;SDS011;72877;52.130;5.582;2024-01-27T14:22:44;31.00;;;10.68;;
83054;SDS011;72877;52.130;5.582;2024-01-27T14:25:09;17.85;;;8.00;;